Portada
METAR-TAF:

METAR-TAF

Aeroports :

Aeroport Internacional de Belfast

Belfast, Irlanda del Nord

latitud: 54-39N, longitud: 006-13W, altitud: 81 m

Observació

L'informe es va fer fa 27 minuts, a les 11:50 UTC
Vent 12 kt del Est/Sud-Est
Temperatura 14°C
Humitat 72%
Pressió 1025 hPa
Visibilitat 10 km o més
sense núvols per sota de 1500 mi sense presència de cumulonimbus.

METAR: EGAA 091150Z 11012KT CAVOK 14/09 Q1025

Hora: 13:17 (12:17 UTC)

Pronòstic

L'informe es va fer fa 1 hora i 17 minuts, a les 11:00 UTC
Pronòstic vàlid del 09 a les 12 UTC al 10 a les 12 UTC
Vent 11 kt del Est/Sud-Est
Visibilitat 10 km o més
Núvols disperses a una alçada de 3500 ft
Probabilitat 40% :
Temporalment
l' 09 a les 22 UTC al 10 a les 10 UTC
Visibilitat: 8000 m
Evolucionant progressivament
l' 10 a les 09 UTC al 10 a les 12 UTC
Vent 9 kt del Sud

TAF: EGAA 091100Z 0912/1012 11011KT 9999 SCT035 PROB40 TEMPO 0922/1010 8000 BECMG 1009/1012 17009KT

Observacions i pronòstics meteorològics de més de 4000 aeroports (METAR i TAF).

Les estacions disponibles són els punts grocs i vermells al mapa.

Posi el ratolí al punt desitjat per veure el nom de l'estació.

Feu clic per veure les observacions i els pronòstics meteorològics.

Per canviar el mapa: feu clic els botons verds amb una creu de color negre per apropar; al botó verd amb un guió per allunyar la imatge; o en les fletxes verdes per a mapes adjacents.


METAR-TAF: